createdAt,value
2023-04-08T00:01:04.483Z,22.98
2023-04-08T00:03:31.495Z,22.65
2023-04-08T00:06:00.235Z,21.75
2023-04-08T00:08:26.956Z,20.75
2023-04-08T00:10:54.056Z,22.17
2023-04-08T00:13:20.836Z,24.58
2023-04-08T00:15:47.991Z,22.33
2023-04-08T00:18:15.889Z,21.17
2023-04-08T00:20:43.447Z,19.98
2023-04-08T00:23:10.426Z,22.73
2023-04-08T00:25:37.563Z,24.63
2023-04-08T00:28:04.564Z,25.17
2023-04-08T00:30:31.765Z,20.92
2023-04-08T00:32:58.589Z,25.88
2023-04-08T00:35:25.913Z,28.48
2023-04-08T00:37:52.722Z,29.20
2023-04-08T00:40:19.794Z,31.02
2023-04-08T00:42:46.641Z,28.48
2023-04-08T00:45:13.772Z,31.45
2023-04-08T00:47:40.629Z,29.45
2023-04-08T00:50:09.244Z,35.03
2023-04-08T00:52:36.206Z,31.83
2023-04-08T00:55:03.454Z,35.35
2023-04-08T00:57:30.225Z,32.65
2023-04-08T00:59:57.241Z,30.23
2023-04-08T01:02:34.195Z,34.70
2023-04-08T01:05:07.047Z,30.05
2023-04-08T01:07:35.704Z,32.35
2023-04-08T01:10:08.099Z,32.30
2023-04-08T01:12:42.222Z,35.53
2023-04-08T01:15:11.033Z,39.43
2023-04-08T01:17:37.862Z,37.40
2023-04-08T01:20:06.074Z,33.63
2023-04-08T01:26:44.724Z,34.85
2023-04-08T01:29:11.481Z,34.65
2023-04-08T01:31:38.632Z,34.53
2023-04-08T01:34:06.515Z,32.38
2023-04-08T01:36:33.773Z,35.67
2023-04-08T01:39:01.000Z,34.67
2023-04-08T01:41:28.091Z,32.40
2023-04-08T01:43:54.900Z,35.60
2023-04-08T01:46:22.062Z,34.60
2023-04-08T01:48:49.182Z,34.83
2023-04-08T01:51:16.395Z,31.15
2023-04-08T01:53:44.291Z,33.20
2023-04-08T01:56:12.969Z,33.17
2023-04-08T01:58:51.278Z,30.95
2023-04-08T02:01:20.268Z,31.58
2023-04-08T02:03:47.605Z,32.95
2023-04-08T02:06:14.777Z,36.00
2023-04-08T02:08:41.626Z,32.63
2023-04-08T02:11:08.689Z,32.67
2023-04-08T02:13:35.427Z,31.08
2023-04-08T02:16:13.187Z,29.88
2023-04-08T02:18:39.911Z,31.25
2023-04-08T02:21:10.429Z,31.55
2023-04-08T02:23:38.689Z,28.83
2023-04-08T02:26:14.454Z,29.23
2023-04-08T02:28:42.072Z,29.70
2023-04-08T02:31:13.559Z,25.98
2023-04-08T02:33:40.513Z,27.45
2023-04-08T02:36:07.832Z,27.17
2023-04-08T02:38:34.659Z,29.02
2023-04-08T02:41:01.790Z,25.30
2023-04-08T02:43:34.704Z,26.85
2023-04-08T02:46:04.749Z,26.08
2023-04-08T02:48:31.642Z,26.02
2023-04-08T02:50:58.794Z,26.13
2023-04-08T02:53:25.656Z,25.95
2023-04-08T02:55:52.744Z,26.02
2023-04-08T02:58:19.543Z,27.55
2023-04-08T03:00:46.748Z,24.10
2023-04-08T03:03:13.626Z,26.23
2023-04-08T03:05:41.261Z,24.88
2023-04-08T03:08:08.102Z,24.73
2023-04-08T03:10:35.436Z,24.77
2023-04-08T03:13:02.220Z,23.58
2023-04-08T03:15:29.334Z,23.42
2023-04-08T03:17:56.453Z,26.38
2023-04-08T03:20:23.554Z,20.80
2023-04-08T03:22:50.523Z,23.23
2023-04-08T03:25:17.687Z,22.90
2023-04-08T03:27:44.500Z,22.15
2023-04-08T03:30:12.006Z,22.20
2023-04-08T03:32:38.934Z,24.58
2023-04-08T03:35:06.353Z,21.63
2023-04-08T03:37:33.206Z,22.75
2023-04-08T03:40:00.556Z,23.08
2023-04-08T03:42:27.374Z,23.40
2023-04-08T03:44:54.455Z,22.83
2023-04-08T03:47:21.179Z,19.45
2023-04-08T03:49:48.293Z,22.40
2023-04-08T03:52:15.052Z,22.00
2023-04-08T03:54:42.113Z,20.90
2023-04-08T03:57:08.833Z,21.20
2023-04-08T03:59:36.805Z,23.15
2023-04-08T04:02:03.605Z,21.05
2023-04-08T04:04:30.860Z,21.98
2023-04-08T04:06:57.749Z,21.13
2023-04-08T04:09:24.900Z,22.60
2023-04-08T04:11:51.656Z,21.50
2023-04-08T04:14:18.732Z,22.02
2023-04-08T04:16:45.475Z,22.80
2023-04-08T04:19:12.607Z,23.15
2023-04-08T04:21:39.381Z,25.30
2023-04-08T04:24:06.475Z,25.58
2023-04-08T04:26:33.303Z,23.55
2023-04-08T04:29:00.393Z,23.45
2023-04-08T04:31:27.535Z,22.48
2023-04-08T04:33:54.832Z,25.92
2023-04-08T04:36:21.653Z,23.95
2023-04-08T04:38:50.592Z,25.20
2023-04-08T04:41:17.861Z,26.98
2023-04-08T04:43:45.023Z,26.75
2023-04-08T04:46:11.910Z,24.70
2023-04-08T04:48:39.118Z,25.77
2023-04-08T04:51:07.574Z,26.95
2023-04-08T04:53:34.764Z,25.75
2023-04-08T04:56:02.072Z,24.35
2023-04-08T04:58:29.782Z,22.80
2023-04-08T05:00:56.846Z,25.02
2023-04-08T05:03:23.707Z,23.20
2023-04-08T05:05:54.501Z,25.75
2023-04-08T05:08:21.441Z,24.15
2023-04-08T05:10:50.683Z,24.08
2023-04-08T05:13:18.454Z,25.15
2023-04-08T05:15:46.028Z,24.77
2023-04-08T05:18:13.023Z,27.38
2023-04-08T05:20:40.331Z,23.98
2023-04-08T05:23:07.815Z,27.55
2023-04-08T05:25:34.975Z,25.38
2023-04-08T05:28:01.906Z,25.85
2023-04-08T05:30:29.085Z,26.38
2023-04-08T05:32:58.486Z,26.20
2023-04-08T05:35:27.313Z,22.30
2023-04-08T05:37:54.134Z,24.80
2023-04-08T05:40:21.306Z,24.42
2023-04-08T05:42:48.113Z,23.60
2023-04-08T05:45:16.190Z,24.33
2023-04-08T05:47:42.998Z,25.42
2023-04-08T05:50:11.393Z,23.33
2023-04-08T05:52:41.818Z,26.92
2023-04-08T05:55:09.162Z,25.33
2023-04-08T05:57:36.186Z,26.00
2023-04-08T06:00:08.371Z,23.92
2023-04-08T06:02:36.099Z,24.60
2023-04-08T06:05:03.999Z,24.20
2023-04-08T06:07:31.087Z,23.45
2023-04-08T06:09:58.211Z,20.25
2023-04-08T06:12:25.020Z,23.40
2023-04-08T06:14:56.179Z,21.25
2023-04-08T06:17:23.309Z,20.27
2023-04-08T06:19:50.467Z,23.35
2023-04-08T06:22:17.259Z,22.98
2023-04-08T06:24:44.372Z,22.55
2023-04-08T06:27:11.275Z,20.75
2023-04-08T06:29:38.813Z,22.30
2023-04-08T06:32:06.702Z,23.20
2023-04-08T06:34:33.787Z,19.05
2023-04-08T06:37:00.896Z,21.83
2023-04-08T06:39:27.934Z,22.52
2023-04-08T06:41:54.810Z,23.13
2023-04-08T06:44:21.944Z,23.67
2023-04-08T06:46:48.711Z,22.58
2023-04-08T06:49:15.923Z,21.98
2023-04-08T06:51:42.766Z,26.13
2023-04-08T06:54:12.682Z,22.02
2023-04-08T06:56:39.468Z,25.15
2023-04-08T06:59:06.556Z,24.02
2023-04-08T07:01:33.444Z,21.63
2023-04-08T07:04:02.397Z,22.33
2023-04-08T07:06:29.237Z,22.20
2023-04-08T07:08:56.380Z,18.40
2023-04-08T07:11:23.212Z,26.75
2023-04-08T07:13:50.766Z,21.00
2023-04-08T07:16:17.563Z,23.45
2023-04-08T07:18:44.916Z,22.80
2023-04-08T07:21:11.686Z,21.80
2023-04-08T07:23:38.836Z,20.75
2023-04-08T07:26:05.793Z,23.33
2023-04-08T07:28:32.974Z,18.98
2023-04-08T07:31:26.507Z,21.35
2023-04-08T07:33:53.805Z,22.42
2023-04-08T07:36:21.165Z,22.13
2023-04-08T07:38:48.515Z,21.75
2023-04-08T07:41:15.839Z,22.75
2023-04-08T07:43:43.013Z,19.35
2023-04-08T07:46:09.907Z,22.33
2023-04-08T07:48:37.143Z,23.85
2023-04-08T07:51:10.046Z,32.50
2023-04-08T07:53:38.853Z,32.80
2023-04-08T07:56:11.594Z,28.60
2023-04-08T07:58:40.405Z,35.38
2023-04-08T08:01:21.987Z,28.70
2023-04-08T08:03:50.995Z,28.45
2023-04-08T08:06:18.196Z,33.33
2023-04-08T08:08:45.813Z,25.88
2023-04-08T08:11:12.984Z,24.65
2023-04-08T08:13:40.273Z,24.27
2023-04-08T08:16:09.255Z,30.83
2023-04-08T08:18:37.062Z,28.17
2023-04-08T08:21:03.987Z,25.33
2023-04-08T08:23:31.165Z,24.48
2023-04-08T08:26:10.333Z,23.17
2023-04-08T08:28:38.493Z,24.58
2023-04-08T08:31:06.286Z,22.63
2023-04-08T08:33:33.592Z,27.15
2023-04-08T08:36:00.522Z,27.35
2023-04-08T08:38:27.724Z,25.85
2023-04-08T08:40:56.369Z,24.00
2023-04-08T08:43:24.496Z,26.08
2023-04-08T08:45:51.406Z,23.65
2023-04-08T08:48:18.640Z,22.42
2023-04-08T08:50:45.735Z,25.38
2023-04-08T08:53:13.042Z,25.33
2023-04-08T08:56:05.674Z,22.15
2023-04-08T08:58:29.355Z,23.30
2023-04-08T09:00:56.502Z,21.98
2023-04-08T09:03:24.828Z,18.08
2023-04-08T09:05:53.475Z,22.33
2023-04-08T09:08:34.521Z,21.00
2023-04-08T09:11:21.848Z,17.38
2023-04-08T09:13:49.419Z,20.65
2023-04-08T09:16:18.343Z,20.13
2023-04-08T09:18:47.304Z,21.73
2023-04-08T09:21:14.728Z,20.85
2023-04-08T09:23:46.828Z,21.98
2023-04-08T09:26:22.313Z,19.83
2023-04-08T09:29:18.338Z,20.20
2023-04-08T09:31:59.274Z,20.25
2023-04-08T09:34:27.768Z,19.77
2023-04-08T09:36:54.839Z,20.52
2023-04-08T09:39:22.042Z,17.98
2023-04-08T09:41:50.151Z,17.85
2023-04-08T09:44:18.589Z,16.63
2023-04-08T09:46:45.544Z,16.15
2023-04-08T09:49:13.817Z,14.93
2023-04-08T09:51:45.580Z,16.42
2023-04-08T09:54:15.076Z,14.43
2023-04-08T09:56:47.810Z,13.55
2023-04-08T09:59:18.669Z,16.77
2023-04-08T10:01:47.672Z,16.52
2023-04-08T10:04:16.395Z,14.60
2023-04-08T10:06:43.302Z,14.05
2023-04-08T10:09:10.554Z,14.02
2023-04-08T10:11:37.465Z,14.77
2023-04-08T10:14:04.782Z,14.40
2023-04-08T10:16:31.773Z,11.70
2023-04-08T10:18:59.077Z,15.20
2023-04-08T10:21:33.361Z,14.13
2023-04-08T10:24:01.540Z,13.43
2023-04-08T10:26:44.669Z,12.82
2023-04-08T10:29:17.899Z,14.07
2023-04-08T10:31:45.322Z,11.38
2023-04-08T10:34:19.318Z,12.18
2023-04-08T10:36:46.360Z,10.00
2023-04-08T10:39:13.946Z,12.77
2023-04-08T10:41:46.996Z,11.27
2023-04-08T10:44:20.901Z,10.75
2023-04-08T10:46:48.331Z,10.60
2023-04-08T10:49:15.919Z,10.48
2023-04-08T10:51:44.207Z,11.55
2023-04-08T10:54:12.941Z,10.25
2023-04-08T10:56:49.485Z,12.68
2023-04-08T10:59:17.830Z,10.40
2023-04-08T11:01:45.687Z,11.93
2023-04-08T11:04:18.488Z,10.77
2023-04-08T11:06:46.857Z,12.43
2023-04-08T11:09:14.349Z,12.60
2023-04-08T11:11:45.157Z,10.23
2023-04-08T11:14:13.866Z,10.75
2023-04-08T11:16:40.771Z,10.55
2023-04-08T11:19:08.020Z,9.25
2023-04-08T11:21:38.704Z,10.13
2023-04-08T11:24:13.351Z,10.15
2023-04-08T11:26:40.690Z,9.67
2023-04-08T11:29:12.794Z,9.52
2023-04-08T11:31:39.607Z,10.50
2023-04-08T11:34:07.452Z,14.27
2023-04-08T11:36:36.614Z,10.10
2023-04-08T11:39:08.362Z,10.07
2023-04-08T11:41:39.544Z,10.02
2023-04-08T11:44:09.597Z,10.73
2023-04-08T11:46:36.671Z,10.13
2023-04-08T11:49:04.831Z,9.60
2023-04-08T11:51:31.938Z,10.15
2023-04-08T11:53:59.149Z,10.25
2023-04-08T11:56:26.478Z,12.07
2023-04-08T11:58:53.713Z,12.38
2023-04-08T12:01:21.657Z,12.98
2023-04-08T12:03:59.432Z,11.82
2023-04-08T12:06:27.567Z,13.18
2023-04-08T12:08:55.844Z,15.35
2023-04-08T12:11:24.132Z,19.35
2023-04-08T12:13:52.931Z,16.00
2023-04-08T12:16:20.584Z,13.95
2023-04-08T12:18:47.865Z,14.07
2023-04-08T12:21:14.743Z,17.15
2023-04-08T12:23:41.912Z,12.98
2023-04-08T12:26:08.888Z,12.48
2023-04-08T12:28:36.331Z,13.75
2023-04-08T12:31:03.511Z,20.13
2023-04-08T12:33:30.884Z,17.42
2023-04-08T12:36:00.851Z,14.48
2023-04-08T12:38:28.052Z,16.00
2023-04-08T12:40:55.353Z,14.00
2023-04-08T12:43:23.693Z,18.88
2023-04-08T12:45:51.358Z,13.25
2023-04-08T12:48:18.546Z,15.95
2023-04-08T12:50:45.504Z,13.50
2023-04-08T12:53:12.672Z,15.20
2023-04-08T12:55:39.667Z,13.85
2023-04-08T12:58:06.864Z,14.38
2023-04-08T13:00:33.750Z,11.27
2023-04-08T13:03:01.268Z,14.98
2023-04-08T13:05:41.881Z,13.00
2023-04-08T13:08:11.958Z,13.90
2023-04-08T13:10:38.873Z,11.63
2023-04-08T13:13:06.681Z,14.10
2023-04-08T13:15:33.594Z,12.23
2023-04-08T13:18:01.053Z,11.77
2023-04-08T13:20:28.266Z,12.27
2023-04-08T13:22:55.673Z,13.95
2023-04-08T13:25:22.589Z,10.73
2023-04-08T13:27:49.710Z,14.40
2023-04-08T13:30:16.626Z,12.98
2023-04-08T13:32:43.861Z,13.68
2023-04-08T13:35:10.740Z,14.68
2023-04-08T13:37:37.837Z,14.90
2023-04-08T13:40:05.306Z,18.52
2023-04-08T13:42:32.897Z,22.80
2023-04-08T13:44:59.737Z,35.25
2023-04-08T13:47:27.202Z,39.83
2023-04-08T13:49:54.116Z,35.30
2023-04-08T13:52:21.344Z,33.90
2023-04-08T13:54:48.351Z,35.00
2023-04-08T13:57:15.486Z,33.15
2023-04-08T13:59:44.398Z,33.17
2023-04-08T14:02:12.962Z,31.65
2023-04-08T14:04:41.014Z,28.92
2023-04-08T14:07:08.277Z,33.25
2023-04-08T14:09:35.848Z,35.22
2023-04-08T14:12:02.937Z,34.63
2023-04-08T14:14:29.872Z,37.97
2023-04-08T14:16:57.204Z,34.13
2023-04-08T14:19:24.130Z,37.17
2023-04-08T14:21:51.388Z,34.60
2023-04-08T14:24:18.189Z,37.45
2023-04-08T14:26:45.482Z,30.95
2023-04-08T14:29:12.382Z,33.33
2023-04-08T14:31:39.560Z,27.88
2023-04-08T14:34:06.422Z,26.92
2023-04-08T14:36:33.838Z,27.00
2023-04-08T14:39:00.839Z,26.75
2023-04-08T14:41:28.125Z,22.35
2023-04-08T14:43:55.050Z,24.40
2023-04-08T14:46:22.364Z,24.42
2023-04-08T14:48:50.646Z,27.15
2023-04-08T14:51:18.133Z,24.35
2023-04-08T14:53:45.022Z,24.52
2023-04-08T14:56:13.368Z,24.02
2023-04-08T14:58:40.259Z,23.30
2023-04-08T15:01:07.405Z,22.23
2023-04-08T15:03:34.339Z,20.92
2023-04-08T15:06:01.968Z,24.25
2023-04-08T15:08:28.912Z,22.60
2023-04-08T15:10:57.040Z,22.65
2023-04-08T15:13:23.855Z,23.73
2023-04-08T15:15:51.710Z,26.17
2023-04-08T15:18:18.600Z,26.92
2023-04-08T15:20:46.131Z,29.27
2023-04-08T15:23:12.966Z,24.90
2023-04-08T15:25:40.170Z,24.33
2023-04-08T15:28:07.062Z,26.25
2023-04-08T15:30:35.685Z,26.08
2023-04-08T15:33:03.750Z,23.67
2023-04-08T15:35:31.448Z,24.80
2023-04-08T15:37:58.427Z,25.65
2023-04-08T15:40:25.907Z,25.17
2023-04-08T15:42:53.124Z,25.17
2023-04-08T15:45:20.628Z,24.40
2023-04-08T15:47:47.458Z,21.27
2023-04-08T15:50:15.307Z,22.10
2023-04-08T15:52:42.462Z,25.65
2023-04-08T15:55:10.031Z,24.40
2023-04-08T15:57:37.224Z,20.13
2023-04-08T16:00:11.182Z,21.80
2023-04-08T16:02:38.539Z,22.70
2023-04-08T16:05:06.304Z,22.23
2023-04-08T16:07:33.328Z,24.48
2023-04-08T16:10:00.617Z,20.73
2023-04-08T16:12:27.578Z,19.25
2023-04-08T16:14:54.908Z,20.08
2023-04-08T16:17:22.043Z,19.20
2023-04-08T16:19:50.766Z,21.75
2023-04-08T16:22:18.014Z,18.60
2023-04-08T16:24:45.351Z,19.40
2023-04-08T16:27:12.175Z,23.92
2023-04-08T16:29:39.617Z,19.85
2023-04-08T16:32:06.792Z,25.98
2023-04-08T16:34:34.670Z,25.30
2023-04-08T16:37:01.449Z,22.10
2023-04-08T16:39:28.714Z,25.83
2023-04-08T16:41:55.614Z,22.00
2023-04-08T16:44:22.848Z,21.58
2023-04-08T16:46:49.740Z,21.13
2023-04-08T16:49:18.222Z,21.90
2023-04-08T16:51:45.280Z,22.90
2023-04-08T16:54:12.672Z,19.55
2023-04-08T16:56:44.352Z,19.38
2023-04-08T16:59:12.598Z,22.58
2023-04-08T17:01:39.457Z,21.10
2023-04-08T17:04:06.813Z,17.73
2023-04-08T17:06:35.789Z,20.88
2023-04-08T17:09:03.920Z,20.55
2023-04-08T17:11:31.163Z,19.15
2023-04-08T17:13:58.434Z,19.02
2023-04-08T17:16:25.519Z,18.20
2023-04-08T17:18:52.831Z,17.10
2023-04-08T17:21:21.242Z,20.42
2023-04-08T17:23:48.500Z,17.38
2023-04-08T17:26:15.557Z,17.60
2023-04-08T17:28:45.401Z,14.52
2023-04-08T17:31:12.283Z,16.80
2023-04-08T17:33:39.413Z,18.23
2023-04-08T17:36:06.644Z,17.27
2023-04-08T17:38:33.880Z,18.23
2023-04-08T17:41:00.660Z,16.45
2023-04-08T17:43:27.831Z,16.58
2023-04-08T17:45:59.455Z,16.90
2023-04-08T17:48:27.007Z,15.00
2023-04-08T17:51:04.497Z,15.90
2023-04-08T17:53:32.291Z,15.77
2023-04-08T17:55:59.444Z,18.30
2023-04-08T17:58:27.322Z,18.15
2023-04-08T18:00:54.148Z,15.77
2023-04-08T18:03:21.654Z,16.52
2023-04-08T18:05:48.742Z,18.45
2023-04-08T18:08:16.284Z,15.07
2023-04-08T18:10:43.575Z,16.45
2023-04-08T18:13:12.059Z,16.38
2023-04-08T18:15:39.261Z,15.30
2023-04-08T18:18:06.395Z,15.23
2023-04-08T18:20:36.926Z,14.98
2023-04-08T18:23:04.526Z,15.05
2023-04-08T18:25:32.142Z,15.43
2023-04-08T18:27:59.592Z,17.35
2023-04-08T18:30:26.536Z,15.98
2023-04-08T18:32:53.649Z,15.20
2023-04-08T18:35:21.067Z,15.35
2023-04-08T18:37:48.411Z,16.73
2023-04-08T18:40:15.556Z,15.85
2023-04-08T18:42:42.633Z,16.98
2023-04-08T18:45:09.724Z,16.90
2023-04-08T18:47:37.672Z,21.40
2023-04-08T18:50:04.816Z,17.13
2023-04-08T18:52:32.375Z,17.13
2023-04-08T18:55:00.097Z,19.42
2023-04-08T18:57:27.217Z,19.98
2023-04-08T18:59:53.960Z,18.00
2023-04-08T19:02:21.747Z,19.50
2023-04-08T19:04:48.629Z,19.38
2023-04-08T19:07:17.150Z,19.95
2023-04-08T19:09:44.047Z,20.05
2023-04-08T19:12:11.256Z,21.13
2023-04-08T19:14:38.129Z,20.60
2023-04-08T19:17:05.301Z,22.17
2023-04-08T19:19:32.654Z,19.77
2023-04-08T19:22:02.762Z,20.60
2023-04-08T19:24:29.587Z,22.35
2023-04-08T19:26:56.629Z,21.98
2023-04-08T19:29:24.482Z,20.40
2023-04-08T19:31:53.048Z,21.40
2023-04-08T19:34:21.172Z,20.92
2023-04-08T19:36:49.515Z,19.10
2023-04-08T19:39:17.459Z,21.80
2023-04-08T19:41:45.370Z,23.13
2023-04-08T19:44:12.170Z,26.48
2023-04-08T19:46:39.264Z,29.08
2023-04-08T19:49:06.329Z,32.20
2023-04-08T19:51:33.456Z,24.25
2023-04-08T19:54:00.302Z,23.75
2023-04-08T19:56:27.986Z,27.67
2023-04-08T19:58:55.129Z,27.70
2023-04-08T20:01:23.854Z,28.40
2023-04-08T20:03:52.334Z,30.05
2023-04-08T20:06:19.975Z,26.70
2023-04-08T20:08:46.806Z,27.38
2023-04-08T20:11:13.940Z,30.85
2023-04-08T20:13:40.965Z,30.65
2023-04-08T20:16:08.466Z,29.20
2023-04-08T20:18:35.364Z,30.65
2023-04-08T20:21:02.589Z,30.27
2023-04-08T20:23:29.453Z,31.27
2023-04-08T20:25:56.838Z,29.27
2023-04-08T20:28:23.829Z,30.73
2023-04-08T20:30:52.417Z,30.23
2023-04-08T20:33:19.306Z,32.50
2023-04-08T20:35:47.667Z,29.90
2023-04-08T20:38:14.687Z,27.83
2023-04-08T20:40:44.150Z,32.83
2023-04-08T20:43:11.466Z,31.63
2023-04-08T20:45:38.660Z,30.95
2023-04-08T20:48:05.983Z,31.30
2023-04-08T20:50:33.184Z,29.77
2023-04-08T20:53:00.117Z,28.63
2023-04-08T20:55:27.308Z,30.00
2023-04-08T20:57:54.155Z,31.25
2023-04-08T21:00:21.394Z,27.38
2023-04-08T21:02:48.499Z,27.00
2023-04-08T21:05:15.876Z,29.42
2023-04-08T21:07:44.774Z,27.95
2023-04-08T21:10:14.860Z,31.48
2023-04-08T21:12:41.709Z,31.58
2023-04-08T21:15:09.415Z,30.58
2023-04-08T21:17:36.314Z,30.92
2023-04-08T21:20:04.669Z,31.95
2023-04-08T21:22:32.371Z,32.38
2023-04-08T21:24:59.489Z,32.70
2023-04-08T21:27:26.296Z,29.92
2023-04-08T21:29:53.509Z,35.92
2023-04-08T21:32:20.618Z,28.73
2023-04-08T21:34:47.868Z,28.92
2023-04-08T21:37:14.638Z,30.70
2023-04-08T21:39:41.715Z,33.80
2023-04-08T21:42:08.548Z,31.42
2023-04-08T21:44:35.644Z,33.80
2023-04-08T21:47:02.574Z,34.05
2023-04-08T21:49:32.739Z,33.40
2023-04-08T21:51:59.589Z,34.33
2023-04-08T21:54:26.733Z,33.75
2023-04-08T21:56:53.567Z,34.75
2023-04-08T21:59:20.868Z,37.05
2023-04-08T22:01:48.038Z,34.42
2023-04-08T22:04:15.779Z,34.50
2023-04-08T22:06:42.896Z,35.63
2023-04-08T22:09:10.104Z,35.35
2023-04-08T22:11:36.945Z,39.95
2023-04-08T22:14:04.068Z,35.55
2023-04-08T22:16:32.158Z,39.53
2023-04-08T22:18:59.325Z,45.75
2023-04-08T22:21:26.322Z,46.92
2023-04-08T22:24:03.252Z,47.33
2023-04-08T22:26:30.079Z,52.45
2023-04-08T22:28:57.336Z,50.67
2023-04-08T22:31:24.203Z,45.88
2023-04-08T22:33:51.426Z,52.25
2023-04-08T22:36:18.219Z,49.22
2023-04-08T22:38:46.373Z,52.85
2023-04-08T22:41:20.016Z,53.17
2023-04-08T22:43:47.330Z,53.13
2023-04-08T22:46:14.557Z,54.63
2023-04-08T22:48:41.828Z,51.03
2023-04-08T22:51:09.241Z,50.10
2023-04-08T22:53:37.102Z,57.47
2023-04-08T22:56:04.486Z,54.38
2023-04-08T22:58:31.658Z,62.42
2023-04-08T23:00:58.504Z,59.60
2023-04-08T23:03:25.760Z,59.03
2023-04-08T23:05:52.565Z,60.28
2023-04-08T23:08:19.666Z,66.50
2023-04-08T23:10:46.555Z,59.83
2023-04-08T23:13:14.112Z,59.80
2023-04-08T23:15:40.941Z,58.22
2023-04-08T23:18:08.062Z,54.28
2023-04-08T23:20:35.584Z,53.10
2023-04-08T23:23:03.550Z,58.00
2023-04-08T23:25:30.531Z,52.50
2023-04-08T23:27:57.718Z,57.30
2023-04-08T23:30:24.504Z,60.67
2023-04-08T23:32:51.628Z,56.08
2023-04-08T23:35:18.547Z,49.25
2023-04-08T23:37:45.826Z,57.55
2023-04-08T23:40:12.714Z,58.53
2023-04-08T23:42:39.852Z,52.60
2023-04-08T23:45:07.068Z,49.95
2023-04-08T23:47:34.212Z,52.90
2023-04-08T23:50:01.280Z,49.85
2023-04-08T23:52:28.425Z,51.30
2023-04-08T23:54:55.281Z,49.65
2023-04-08T23:57:22.338Z,48.08
2023-04-08T23:59:49.177Z,50.60
